Perham, MN (56573)

10:20 AM CST on February 07, 2016 (GMT -0600)
SE Perham | | Change Station
CLOSE
Current Station
Personal Weather Station
Location: Perham, MN
Elevation: 1365 ft
Nearby Weather Stations
Active Advisory: Winter Storm Warning

Elev 1365 ft 46.59 °N, 95.57 °W | Updated 26 seconds ago

Snow
Snow
32.9 °F
Feels Like 24 °F
N
13.0
Wind Variable Wind from West
Gusts 15.0 mph

Today
High -- | Low -- °F
--% Chance of Precip.
Yesterday
High -- | Low -- °F
Precip. -- in
Pressure 29.56 in
Visibility 5.0 miles
Clouds Overcast 2200 ft
Windchill 24 °F
Dew Point 29 °F
Humidity 85%
Rainfall 0.05 in
Snow Depth Not available.
7:38 AM 5:34 PM
Waning Crescent, 1% visible
METAR KADC 071615Z AUTO 28015G20KT 5SM -SN OVC022 00/M02 A2956 RMK AO2
Pressure 29.56 in
Visibility 5.0 miles
Clouds Overcast 2200 ft
Windchill 24 °F
Dew Point 29 °F
Humidity 85%
Rainfall 0.05 in
Snow Depth Not available.
7:38 AM 5:34 PM
Waning Crescent, 1% visible
METAR KADC 071615Z AUTO 28015G20KT 5SM -SN OVC022 00/M02 A2956 RMK AO2

10-Day Weather Forecast

Almanac

Astronomy

Feb. 07, 2016 Rise Set
Actual Time
Civil Twilight
Nautical Twilight
Astronomical Twilight
Moon
Length of Visible Light
Length of Day
Tomorrow will be .
, % of the Moon is Illuminated

Today's Extremes

State Highs State Lows

Community

WunderPhotos

Upload Photos

1,891,221 photos uploaded!

WunderBlog® & News

Nearby

Air Quality

  Air Quality AQ Index Pollutant
Not available.

Snow Depth

Station Depth Elevation

Earthquake Activity

City Distance Mag. Time & Date
Minimum magnitude displayed is 2.5.

Coastal Water Temperatures

Place Temperature

Stations

Nearby Weather Stations

Station Location Temp. Windchill Dew Point Humidity Wind Precip. Elev Updated Type
                   

Watches & Warnings

Winter Storm Warning
Issued: 10:16 AM CST Feb. 7, 2016 – National Weather Service

... Winter Storm Warning remains in effect until 6 am CST Monday...

* timing... expect snow to continue into tonight.

* Snow accumulations... 2 to 4 inches.

* Winds / visibilities... winds gusting as high as 45 mph will
cause widespread blowing and drifting snow.

* Impacts... plan on difficult driving conditions.

Precautionary/preparedness actions...

A Winter Storm Warning for snow means severe winter weather
conditions are expected. If you must travel... keep an extra
flashlight... food and water in your vehicle in case of an
emergency. The latest Road conditions for the state you are
calling from can be obtained by calling 5 1 1.